createdAt,value
2019-05-20T00:00:17.569Z,15.37
2019-05-20T00:05:13.914Z,15.40
2019-05-20T00:10:11.636Z,15.46
2019-05-20T00:15:10.135Z,15.47
2019-05-20T00:20:07.984Z,15.52
2019-05-20T00:25:06.114Z,15.55
2019-05-20T00:30:02.834Z,15.46
2019-05-20T00:35:00.295Z,15.49
2019-05-20T00:39:57.411Z,15.47
2019-05-20T00:44:54.814Z,15.51
2019-05-20T00:49:51.999Z,15.46
2019-05-20T00:54:49.134Z,15.37
2019-05-20T00:59:46.528Z,15.33
2019-05-20T01:04:43.592Z,15.24
2019-05-20T01:09:41.149Z,15.17
2019-05-20T01:14:39.177Z,15.24
2019-05-20T01:19:35.545Z,15.21
2019-05-20T01:24:32.947Z,15.15
2019-05-20T01:29:31.128Z,15.25
2019-05-20T01:34:28.961Z,15.14
2019-05-20T01:39:25.932Z,15.10
2019-05-20T01:44:23.569Z,15.10
2019-05-20T01:49:21.059Z,14.99
2019-05-20T01:54:18.121Z,15.07
2019-05-20T01:59:16.015Z,14.99
2019-05-20T02:04:12.174Z,14.92
2019-05-20T02:09:09.321Z,14.89
2019-05-20T02:14:06.685Z,14.88
2019-05-20T02:19:04.277Z,14.89
2019-05-20T02:24:01.756Z,14.81
2019-05-20T02:28:58.595Z,14.73
2019-05-20T02:33:55.331Z,14.66
2019-05-20T02:38:52.507Z,14.60
2019-05-20T02:43:51.014Z,14.62
2019-05-20T02:48:49.018Z,14.51
2019-05-20T02:53:46.290Z,14.50
2019-05-20T02:58:44.040Z,14.53
2019-05-20T03:03:42.171Z,14.41
2019-05-20T03:08:38.763Z,14.50
2019-05-20T03:13:35.647Z,14.43
2019-05-20T03:18:32.806Z,14.32
2019-05-20T03:23:29.957Z,14.32
2019-05-20T03:28:27.619Z,14.53
2019-05-20T03:33:25.177Z,14.51
2019-05-20T03:38:21.810Z,14.30
2019-05-20T03:43:18.972Z,14.45
2019-05-20T03:48:15.405Z,14.40
2019-05-20T03:53:12.705Z,14.36
2019-05-20T03:58:13.019Z,14.33
2019-05-20T04:03:09.818Z,14.33
2019-05-20T04:08:07.186Z,14.32
2019-05-20T04:13:05.061Z,14.14
2019-05-20T04:18:01.336Z,14.25
2019-05-20T04:22:58.913Z,14.17
2019-05-20T04:27:56.319Z,14.29
2019-05-20T04:32:53.424Z,14.20
2019-05-20T04:37:50.682Z,14.15
2019-05-20T04:42:47.613Z,14.15
2019-05-20T04:47:44.997Z,14.28
2019-05-20T04:52:42.943Z,14.28
2019-05-20T04:57:39.855Z,14.20
2019-05-20T05:02:36.171Z,14.14
2019-05-20T05:07:32.968Z,14.30
2019-05-20T05:12:30.350Z,14.36
2019-05-20T05:17:28.088Z,14.37
2019-05-20T05:22:26.122Z,14.25
2019-05-20T05:27:24.720Z,14.48
2019-05-20T05:32:21.226Z,14.58
2019-05-20T05:37:18.246Z,14.51
2019-05-20T05:42:15.149Z,14.62
2019-05-20T05:47:12.961Z,14.53
2019-05-20T05:52:09.832Z,14.45
2019-05-20T05:57:06.770Z,14.51
2019-05-20T06:02:03.368Z,14.50
2019-05-20T06:07:00.197Z,14.63
2019-05-20T06:11:57.697Z,14.51
2019-05-20T06:16:54.949Z,14.58
2019-05-20T06:21:51.746Z,14.60
2019-05-20T06:26:50.073Z,14.69
2019-05-20T06:31:46.612Z,14.85
2019-05-20T06:36:44.263Z,14.78
2019-05-20T06:41:42.371Z,14.94
2019-05-20T06:46:39.064Z,14.94
2019-05-20T06:51:37.209Z,14.86
2019-05-20T06:56:34.531Z,14.97
2019-05-20T07:01:32.421Z,14.89
2019-05-20T07:06:44.586Z,14.97
2019-05-20T07:11:30.261Z,15.00
2019-05-20T07:16:27.557Z,14.97
2019-05-20T07:21:24.686Z,14.94
2019-05-20T07:26:21.516Z,14.85
2019-05-20T07:31:19.338Z,14.99
2019-05-20T07:36:16.257Z,15.06
2019-05-20T07:41:13.134Z,14.96
2019-05-20T07:46:10.846Z,15.03
2019-05-20T07:51:09.107Z,15.03
2019-05-20T07:56:05.920Z,15.09
2019-05-20T08:01:04.318Z,15.17
2019-05-20T08:06:01.218Z,15.24
2019-05-20T08:10:58.735Z,15.24
2019-05-20T08:15:55.969Z,15.39
2019-05-20T08:20:53.776Z,15.36
2019-05-20T08:25:50.727Z,15.43
2019-05-20T08:30:47.697Z,15.37
2019-05-20T08:35:45.130Z,15.52
2019-05-20T08:40:42.878Z,15.75
2019-05-20T08:45:39.869Z,15.76
2019-05-20T08:50:37.002Z,15.91
2019-05-20T08:55:34.737Z,16.09
2019-05-20T09:00:31.565Z,16.15
2019-05-20T09:05:28.992Z,16.29
2019-05-20T09:10:25.673Z,16.28
2019-05-20T09:15:22.991Z,16.36
2019-05-20T09:20:19.896Z,16.33
2019-05-20T09:25:16.958Z,16.50
2019-05-20T09:30:13.864Z,16.53
2019-05-20T09:35:10.305Z,16.72
2019-05-20T09:40:08.838Z,16.69
2019-05-20T09:45:06.848Z,16.66
2019-05-20T09:50:03.850Z,16.75
2019-05-20T09:55:00.338Z,16.84
2019-05-20T09:59:56.906Z,16.87
2019-05-20T10:04:54.347Z,16.91
2019-05-20T10:09:52.957Z,16.97
2019-05-20T10:14:52.703Z,16.94
2019-05-20T10:19:47.875Z,16.94
2019-05-20T10:24:45.235Z,16.94
2019-05-20T10:29:41.727Z,16.93
2019-05-20T10:34:39.442Z,17.12
2019-05-20T10:39:36.043Z,17.20
2019-05-20T10:44:33.267Z,17.22
2019-05-20T10:49:31.446Z,17.27
2019-05-20T10:54:28.984Z,17.26
2019-05-20T10:59:25.417Z,17.19
2019-05-20T11:04:23.390Z,17.09
2019-05-20T11:09:19.809Z,17.14
2019-05-20T11:14:17.333Z,17.09
2019-05-20T11:19:14.544Z,16.91
2019-05-20T11:24:11.927Z,16.90
2019-05-20T11:29:08.248Z,16.96
2019-05-20T11:34:06.476Z,17.08
2019-05-20T11:39:06.975Z,17.20
2019-05-20T11:44:02.969Z,17.11
2019-05-20T11:48:59.359Z,17.19
2019-05-20T11:53:55.849Z,17.22
2019-05-20T11:58:53.285Z,17.26
2019-05-20T12:03:50.120Z,17.26
2019-05-20T12:08:47.447Z,17.22
2019-05-20T12:13:44.369Z,17.23
2019-05-20T12:18:45.092Z,17.45
2019-05-20T12:23:41.662Z,17.52
2019-05-20T12:28:38.767Z,17.64
2019-05-20T12:33:35.258Z,17.60
2019-05-20T12:38:32.842Z,17.79
2019-05-20T12:43:29.707Z,17.92
2019-05-20T12:48:25.379Z,18.00
2019-05-20T12:53:21.691Z,18.11
2019-05-20T12:58:19.187Z,18.03
2019-05-20T13:03:16.087Z,18.03
2019-05-20T13:08:13.452Z,18.18
2019-05-20T13:13:10.578Z,18.18
2019-05-20T13:18:07.908Z,18.38
2019-05-20T13:23:07.761Z,18.38
2019-05-20T13:28:05.326Z,18.34
2019-05-20T13:33:02.628Z,18.45
2019-05-20T13:37:59.976Z,18.52
2019-05-20T13:42:56.691Z,18.58
2019-05-20T13:47:53.320Z,18.52
2019-05-20T13:52:50.738Z,18.49
2019-05-20T13:57:48.410Z,18.52
2019-05-20T14:02:44.420Z,18.71
2019-05-20T14:07:42.317Z,18.83
2019-05-20T14:12:40.599Z,19.02
2019-05-20T14:17:37.666Z,19.16
2019-05-20T14:22:34.562Z,19.55
2019-05-20T14:27:32.894Z,20.03
2019-05-20T14:32:30.374Z,20.19
2019-05-20T14:37:28.050Z,20.14
2019-05-20T14:42:25.953Z,20.16
2019-05-20T14:47:22.946Z,20.26
2019-05-20T14:52:20.550Z,20.29
2019-05-20T14:57:19.006Z,20.28
2019-05-20T15:02:15.123Z,20.36
2019-05-20T15:07:28.533Z,20.36
2019-05-20T15:12:13.989Z,20.41
2019-05-20T15:17:11.031Z,20.56
2019-05-20T15:22:09.081Z,20.56
2019-05-20T15:27:07.120Z,20.75
2019-05-20T15:32:05.010Z,20.99
2019-05-20T15:37:01.928Z,21.14
2019-05-20T15:41:59.766Z,21.17
2019-05-20T15:46:55.928Z,21.24
2019-05-20T15:51:54.387Z,21.25
2019-05-20T15:56:51.543Z,21.32
2019-05-20T16:01:49.574Z,21.24
2019-05-20T16:06:45.947Z,21.06
2019-05-20T16:11:42.830Z,21.02
2019-05-20T16:16:39.821Z,21.06
2019-05-20T16:21:37.227Z,20.88
2019-05-20T16:26:34.604Z,20.95
2019-05-20T16:31:31.351Z,20.81
2019-05-20T16:36:28.032Z,20.74
2019-05-20T16:41:24.977Z,20.66
2019-05-20T16:46:22.855Z,20.66
2019-05-20T16:51:22.170Z,20.58
2019-05-20T16:56:19.212Z,20.50
2019-05-20T17:01:16.559Z,20.39
2019-05-20T17:06:13.231Z,20.34
2019-05-20T17:11:11.655Z,20.36
2019-05-20T17:16:08.447Z,20.34
2019-05-20T17:21:05.055Z,20.18
2019-05-20T17:26:02.324Z,20.26
2019-05-20T17:31:00.223Z,20.14
2019-05-20T17:35:57.902Z,20.02
2019-05-20T17:40:56.209Z,20.02
2019-05-20T17:45:52.995Z,19.88
2019-05-20T17:50:49.881Z,19.70
2019-05-20T17:55:47.321Z,19.62
2019-05-20T18:00:44.291Z,19.40
2019-05-20T18:05:41.839Z,19.21
2019-05-20T18:10:42.236Z,19.11
2019-05-20T18:15:39.199Z,18.96
2019-05-20T18:20:36.737Z,18.86
2019-05-20T18:25:33.444Z,18.70
2019-05-20T18:30:31.203Z,18.71
2019-05-20T18:35:28.882Z,18.68
2019-05-20T18:40:25.892Z,18.49
2019-05-20T18:45:23.940Z,18.40
2019-05-20T18:50:20.315Z,18.38
2019-05-20T18:55:18.404Z,18.23
2019-05-20T19:00:14.855Z,18.16
2019-05-20T19:05:11.841Z,18.10
2019-05-20T19:10:09.673Z,18.10
2019-05-20T19:15:06.514Z,18.00
2019-05-20T19:20:04.415Z,17.98
2019-05-20T19:25:02.447Z,17.89
2019-05-20T19:30:01.324Z,17.76
2019-05-20T19:34:58.180Z,17.82
2019-05-20T19:39:55.563Z,17.72
2019-05-20T19:44:51.597Z,17.76
2019-05-20T19:49:49.697Z,17.76
2019-05-20T19:54:46.119Z,17.74
2019-05-20T19:59:44.504Z,17.72
2019-05-20T20:04:41.523Z,17.78
2019-05-20T20:09:38.785Z,17.78
2019-05-20T20:14:35.309Z,17.80
2019-05-20T20:19:32.288Z,17.72
2019-05-20T20:24:29.479Z,17.72
2019-05-20T20:29:26.514Z,17.52
2019-05-20T20:34:23.407Z,17.54
2019-05-20T20:39:20.417Z,17.38
2019-05-20T20:44:17.681Z,17.23
2019-05-20T20:49:15.388Z,17.29
2019-05-20T20:54:12.298Z,17.20
2019-05-20T20:59:10.468Z,17.11
2019-05-20T21:04:07.505Z,16.99
2019-05-20T21:09:05.277Z,16.89
2019-05-20T21:14:02.173Z,16.71
2019-05-20T21:19:00.467Z,16.68
2019-05-20T21:23:58.411Z,16.69
2019-05-20T21:28:55.551Z,16.64
2019-05-20T21:33:52.583Z,16.54
2019-05-20T21:38:50.716Z,16.50
2019-05-20T21:43:48.119Z,16.28
2019-05-20T21:48:45.708Z,16.20
2019-05-20T21:53:42.949Z,16.12
2019-05-20T21:58:39.663Z,16.16
2019-05-20T22:03:37.812Z,16.09
2019-05-20T22:08:34.916Z,16.21
2019-05-20T22:13:32.074Z,16.17
2019-05-20T22:18:29.766Z,16.12
2019-05-20T22:23:27.626Z,16.15
2019-05-20T22:28:24.024Z,16.09
2019-05-20T22:33:22.152Z,15.90
2019-05-20T22:38:19.299Z,15.67
2019-05-20T22:43:16.061Z,15.65
2019-05-20T22:48:13.182Z,15.76
2019-05-20T22:53:11.619Z,15.52
2019-05-20T22:58:09.280Z,15.52
2019-05-20T23:03:06.532Z,15.51
2019-05-20T23:08:04.639Z,15.40
2019-05-20T23:13:01.792Z,15.47
2019-05-20T23:17:58.819Z,15.43
2019-05-20T23:22:55.398Z,15.51
2019-05-20T23:27:52.366Z,15.47
2019-05-20T23:32:49.606Z,15.44
2019-05-20T23:37:46.551Z,15.35
2019-05-20T23:42:43.758Z,15.35
2019-05-20T23:47:40.628Z,15.46
2019-05-20T23:52:37.685Z,15.42
2019-05-20T23:57:34.954Z,15.35
